Time;durP1;ratioP1;P1;durP2;ratioP2;P2;SDS_P1;SDS_P2;PMS_P1;PMS_P2;Temp;Humidity;BMP_temperature;BMP_pressure;BME280_temperature;BME280_humidity;BME280_pressure;Samples;Min_cycle;Max_cycle;Signal;HPM_P1;HPM_P2
2022/03/13 00:01:03;0.00;0.00;0.62;0.00;0.00;0.62;2.20;1.80;;;25.00;17.40;;;;;;2227721;62;20431;-58
2022/03/13 00:03:48;0.00;0.00;0.62;0.00;0.00;0.62;2.53;1.97;;;25.00;17.50;;;;;;2228010;62;20925;-57
2022/03/13 00:06:34;0.00;0.00;0.62;0.00;0.00;0.62;3.40;1.90;;;25.00;17.50;;;;;;2227316;62;20397;-54
2022/03/13 00:09:22;0.00;0.00;0.62;0.00;0.00;0.62;3.40;2.03;;;25.00;17.60;;;;;;2227893;62;20415;-53
2022/03/13 00:12:12;0.00;0.00;0.62;0.00;0.00;0.62;7.63;2.63;;;24.90;17.70;;;;;;2226970;62;20372;-52
2022/03/13 00:15:01;0.00;0.00;0.62;0.00;0.00;0.62;4.37;2.50;;;24.90;17.90;;;;;;2225731;62;20410;-59
2022/03/13 00:17:45;0.00;0.00;0.62;0.00;0.00;0.62;2.53;1.50;;;24.90;17.90;;;;;;2228183;62;20371;-60
2022/03/13 00:20:32;0.00;0.00;0.62;0.00;0.00;0.62;4.13;2.53;;;24.80;17.90;;;;;;2227663;62;20491;-61
2022/03/13 00:23:16;0.00;0.00;0.62;0.00;0.00;0.62;2.90;1.80;;;24.80;18.00;;;;;;2227935;62;20981;-62
2022/03/13 00:26:02;0.00;0.00;0.62;0.00;0.00;0.62;3.40;2.10;;;24.80;18.00;;;;;;2228212;62;20896;-59
2022/03/13 00:28:48;0.00;0.00;0.62;0.00;0.00;0.62;2.00;1.70;;;24.80;18.10;;;;;;2227842;62;20831;-60
2022/03/13 00:31:33;0.00;0.00;0.62;0.00;0.00;0.62;2.67;2.10;;;24.80;18.10;;;;;;2228274;62;20376;-57
2022/03/13 00:34:17;0.00;0.00;0.62;0.00;0.00;0.62;3.70;2.00;;;24.70;18.10;;;;;;2228782;62;20394;-61
2022/03/13 00:37:02;0.00;0.00;0.62;0.00;0.00;0.62;3.10;1.90;;;24.70;18.20;;;;;;2228337;62;20420;-59
2022/03/13 00:39:49;0.00;0.00;0.62;0.00;0.00;0.62;3.17;2.00;;;24.80;18.30;;;;;;2228294;62;20440;-61
2022/03/13 00:42:34;0.00;0.00;0.62;0.00;0.00;0.62;2.00;1.67;;;24.70;18.30;;;;;;2228161;62;20391;-62
2022/03/13 00:45:20;0.00;0.00;0.62;0.00;0.00;0.62;2.37;1.60;;;24.70;18.30;;;;;;2227683;62;20475;-59
2022/03/13 00:48:05;0.00;0.00;0.62;0.00;0.00;0.62;2.33;1.70;;;24.70;18.30;;;;;;2228699;62;20368;-61
2022/03/13 00:50:49;0.00;0.00;0.62;0.00;0.00;0.62;2.30;1.60;;;24.70;18.90;;;;;;2229312;62;20391;-60
2022/03/13 00:53:34;0.00;0.00;0.62;0.00;0.00;0.62;2.03;1.47;;;24.70;18.40;;;;;;2228631;62;20384;-58
2022/03/13 00:56:18;0.00;0.00;0.62;0.00;0.00;0.62;2.20;1.83;;;24.70;18.40;;;;;;2228917;62;20400;-56
2022/03/13 00:59:03;0.00;0.00;0.62;0.00;0.00;0.62;2.07;1.30;;;24.70;18.40;;;;;;2227598;62;20451;-53
2022/03/13 01:01:49;0.00;0.00;0.62;0.00;0.00;0.62;1.97;1.57;;;24.70;18.40;;;;;;2227522;62;20364;-56
2022/03/13 01:04:34;0.00;0.00;0.62;0.00;0.00;0.62;2.30;1.70;;;24.70;18.50;;;;;;2227195;62;20904;-56
2022/03/13 01:07:20;0.00;0.00;0.62;0.00;0.00;0.62;2.63;1.90;;;24.70;18.50;;;;;;2228028;62;20421;-53
2022/03/13 01:10:07;0.00;0.00;0.62;0.00;0.00;0.62;2.00;1.40;;;24.70;18.50;;;;;;2227995;62;20452;-55
2022/03/13 01:12:54;0.00;0.00;0.62;0.00;0.00;0.62;1.97;1.30;;;24.70;18.50;;;;;;2228496;62;20375;-55
2022/03/13 01:15:40;0.00;0.00;0.62;0.00;0.00;0.62;2.60;1.83;;;24.70;18.50;;;;;;2228362;62;20515;-51
2022/03/13 01:18:26;0.00;0.00;0.62;0.00;0.00;0.62;1.77;1.20;;;24.70;18.50;;;;;;2228429;62;20755;-55
2022/03/13 01:21:12;0.00;0.00;0.62;0.00;0.00;0.62;2.23;1.77;;;24.70;18.50;;;;;;2227741;62;20395;-55
2022/03/13 01:24:23;0.00;0.00;0.62;0.00;0.00;0.62;2.27;1.70;;;24.70;18.50;;;;;;2228420;62;20937;-55
2022/03/13 01:27:09;0.00;0.00;0.62;0.00;0.00;0.62;2.10;1.40;;;24.70;18.50;;;;;;2227988;62;20391;-56
2022/03/13 01:29:54;0.00;0.00;0.62;0.00;0.00;0.62;3.03;1.40;;;24.70;18.50;;;;;;2227769;62;20399;-55
2022/03/13 01:32:38;0.00;0.00;0.62;0.00;0.00;0.62;2.00;1.37;;;24.60;18.50;;;;;;2227809;62;20367;-57
2022/03/13 01:35:25;0.00;0.00;0.62;0.00;0.00;0.62;2.00;1.50;;;24.70;18.50;;;;;;2227607;62;20420;-54
2022/03/13 01:38:14;0.00;0.00;0.62;0.00;0.00;0.62;1.83;1.40;;;24.70;18.60;;;;;;2228230;62;20416;-50
2022/03/13 01:40:59;0.00;0.00;0.62;0.00;0.00;0.62;1.90;1.40;;;24.60;18.50;;;;;;2227960;62;20658;-54
2022/03/13 01:43:43;0.00;0.00;0.62;0.00;0.00;0.62;3.23;1.70;;;24.60;18.50;;;;;;2227856;62;20372;-55
2022/03/13 01:46:28;0.00;0.00;0.62;0.00;0.00;0.62;1.93;1.37;;;24.60;18.50;;;;;;2228256;62;20405;-53
2022/03/13 01:49:13;0.00;0.00;0.62;0.00;0.00;0.62;2.13;1.60;;;24.60;18.50;;;;;;2227884;62;20367;-56
2022/03/13 01:52:01;0.00;0.00;0.62;0.00;0.00;0.62;2.27;1.60;;;24.60;18.60;;;;;;2227732;62;20696;-54
2022/03/13 01:54:47;0.00;0.00;0.62;0.00;0.00;0.62;1.90;1.50;;;24.60;18.50;;;;;;2228118;62;20528;-56
2022/03/13 01:57:35;0.00;0.00;0.62;0.00;0.00;0.62;3.60;1.50;;;24.60;18.60;;;;;;2225472;62;20436;-55
2022/03/13 02:00:20;0.00;0.00;0.62;0.00;0.00;0.62;3.13;1.60;;;24.60;18.60;;;;;;2226227;62;20877;-54
2022/03/13 02:03:05;0.00;0.00;0.62;0.00;0.00;0.62;1.73;1.40;;;24.60;18.60;;;;;;2224210;62;20445;-54
2022/03/13 02:05:50;0.00;0.00;0.62;0.00;0.00;0.62;2.10;1.30;;;24.60;18.60;;;;;;2223872;62;20377;-52
2022/03/13 02:08:37;0.00;0.00;0.62;0.00;0.00;0.62;2.00;1.43;;;24.60;18.60;;;;;;2224301;62;20361;-55
2022/03/13 02:11:24;0.00;0.00;0.62;0.00;0.00;0.62;2.30;1.40;;;24.60;18.70;;;;;;2223360;62;20396;-57
2022/03/13 02:14:11;0.00;0.00;0.62;0.00;0.00;0.62;2.10;1.33;;;24.50;18.60;;;;;;2223736;62;20373;-54
2022/03/13 02:16:56;0.00;0.00;0.62;0.00;0.00;0.62;1.90;1.53;;;24.50;18.60;;;;;;2223785;62;20424;-54
2022/03/13 02:19:40;0.00;0.00;0.62;0.00;0.00;0.62;2.10;1.30;;;24.60;18.70;;;;;;2223794;62;20450;-56
2022/03/13 02:22:25;0.00;0.00;0.62;0.00;0.00;0.62;1.97;1.30;;;24.50;18.60;;;;;;2224218;62;20377;-54
2022/03/13 02:25:19;0.00;0.00;0.62;0.00;0.00;0.62;1.53;1.10;;;24.50;18.60;;;;;;2223558;62;20373;-58
2022/03/13 02:28:04;0.00;0.00;0.62;0.00;0.00;0.62;2.60;1.80;;;24.50;18.70;;;;;;2223602;62;20418;-51
2022/03/13 02:30:50;0.00;0.00;0.62;0.00;0.00;0.62;2.10;1.50;;;24.50;18.60;;;;;;2223913;62;20507;-52
2022/03/13 02:33:34;0.00;0.00;0.62;0.00;0.00;0.62;3.00;1.60;;;24.50;18.60;;;;;;2223206;62;20381;-54
2022/03/13 02:36:39;0.00;0.00;0.62;0.00;0.00;0.62;1.93;1.40;;;24.50;19.20;;;;;;2226764;62;20458;-54
2022/03/13 02:39:25;0.00;0.00;0.62;0.00;0.00;0.62;2.10;1.50;;;24.40;18.60;;;;;;2223928;62;20400;-59
2022/03/13 02:42:11;0.00;0.00;0.62;0.00;0.00;0.62;3.60;1.60;;;24.40;18.70;;;;;;2242015;59;20380;-57
2022/03/13 02:44:55;0.00;0.00;0.62;0.00;0.00;0.62;2.33;1.50;;;24.40;18.70;;;;;;2227919;62;20427;-53
2022/03/13 02:47:40;0.00;0.00;0.62;0.00;0.00;0.62;2.17;1.80;;;24.50;18.80;;;;;;2227817;62;20829;-55
2022/03/13 02:50:25;0.00;0.00;0.62;0.00;0.00;0.62;2.30;1.60;;;24.40;18.70;;;;;;2227687;62;20392;-51
2022/03/13 02:53:10;0.00;0.00;0.62;0.00;0.00;0.62;1.90;1.40;;;24.40;18.70;;;;;;2227551;62;20388;-56
2022/03/13 02:55:54;0.00;0.00;0.62;0.00;0.00;0.62;2.00;1.53;;;24.40;18.70;;;;;;2227600;62;20392;-54
2022/03/13 02:58:40;0.00;0.00;0.62;0.00;0.00;0.62;3.30;2.10;;;24.40;18.70;;;;;;2227552;62;20896;-54
2022/03/13 03:01:24;0.00;0.00;0.62;0.00;0.00;0.62;2.30;1.70;;;24.40;18.60;;;;;;2227598;62;20403;-59
2022/03/13 03:04:09;0.00;0.00;0.62;0.00;0.00;0.62;3.60;2.43;;;24.40;18.40;;;;;;2227667;62;20412;-57
2022/03/13 03:07:02;0.00;0.00;0.62;0.00;0.00;0.62;3.30;2.80;;;24.30;17.90;;;;;;2227792;62;20419;-52
2022/03/13 03:09:46;0.00;0.00;0.62;0.00;0.00;0.62;4.57;4.13;;;24.30;17.50;;;;;;2227575;62;20468;-55
2022/03/13 03:12:31;0.00;0.00;0.62;0.00;0.00;0.62;3.70;3.40;;;24.30;17.10;;;;;;2227441;62;20364;-50
2022/03/13 03:15:19;0.00;0.00;0.62;0.00;0.00;0.62;5.90;4.43;;;24.30;16.90;;;;;;2227786;62;20785;-55
2022/03/13 03:18:06;0.00;0.00;0.62;0.00;0.00;0.62;8.07;4.63;;;24.20;16.60;;;;;;2227748;62;20372;-54
2022/03/13 03:20:51;0.00;0.00;0.62;0.00;0.00;0.62;4.80;4.10;;;24.10;16.40;;;;;;2227435;62;20444;-52
2022/03/13 03:23:38;0.00;0.00;0.62;0.00;0.00;0.62;5.53;4.90;;;24.10;16.30;;;;;;2228050;62;20459;-52
2022/03/13 03:26:23;0.00;0.00;0.62;0.00;0.00;0.62;6.00;4.70;;;24.00;16.10;;;;;;2227303;62;20368;-56
2022/03/13 03:29:07;0.00;0.00;0.62;0.00;0.00;0.62;7.30;4.80;;;24.00;16.10;;;;;;2227742;62;20376;-53
2022/03/13 03:31:54;0.00;0.00;0.62;0.00;0.00;0.62;5.90;5.30;;;23.90;15.90;;;;;;2227730;62;20428;-57
2022/03/13 03:34:39;0.00;0.00;0.62;0.00;0.00;0.62;5.17;4.67;;;23.90;15.90;;;;;;2227574;62;20380;-56
2022/03/13 03:37:25;0.00;0.00;0.62;0.00;0.00;0.62;5.10;4.60;;;23.80;15.80;;;;;;2227736;62;20395;-56
2022/03/13 03:40:11;0.00;0.00;0.62;0.00;0.00;0.62;5.50;5.00;;;23.80;15.70;;;;;;2227235;62;20396;-55
2022/03/13 03:42:56;0.00;0.00;0.62;0.00;0.00;0.62;5.53;5.00;;;23.70;15.60;;;;;;2225717;62;20449;-55
2022/03/13 03:45:41;0.00;0.00;0.62;0.00;0.00;0.62;6.10;5.20;;;23.70;15.60;;;;;;2227917;62;20368;-55
2022/03/13 03:48:26;0.00;0.00;0.62;0.00;0.00;0.62;5.50;5.00;;;23.60;15.60;;;;;;2227636;62;20372;-51
2022/03/13 03:51:11;0.00;0.00;0.62;0.00;0.00;0.62;7.20;5.90;;;23.50;15.50;;;;;;2227469;62;20481;-53
2022/03/13 03:53:55;0.00;0.00;0.62;0.00;0.00;0.62;6.60;5.33;;;23.50;15.60;;;;;;2227799;62;20376;-52
2022/03/13 03:56:40;0.00;0.00;0.62;0.00;0.00;0.62;6.67;5.97;;;23.50;15.50;;;;;;2478184;54;20392;-58
2022/03/13 03:59:25;0.00;0.00;0.62;0.00;0.00;0.62;5.80;5.20;;;23.40;15.50;;;;;;2227565;62;20975;-55
2022/03/13 04:02:09;0.00;0.00;0.62;0.00;0.00;0.62;9.73;5.60;;;23.40;15.50;;;;;;2227678;62;20885;-52
2022/03/13 04:04:55;0.00;0.00;0.62;0.00;0.00;0.62;6.40;5.70;;;23.30;15.50;;;;;;2227767;62;20400;-52
2022/03/13 04:07:40;0.00;0.00;0.62;0.00;0.00;0.62;5.97;5.37;;;23.30;15.50;;;;;;2227955;62;20388;-54
2022/03/13 04:10:25;0.00;0.00;0.62;0.00;0.00;0.62;6.20;5.60;;;23.20;15.40;;;;;;2227441;62;20448;-57
2022/03/13 04:13:09;0.00;0.00;0.62;0.00;0.00;0.62;5.70;5.20;;;23.20;15.50;;;;;;2227542;62;20906;-55
2022/03/13 04:15:54;0.00;0.00;0.62;0.00;0.00;0.62;7.10;5.87;;;23.10;15.40;;;;;;2227725;62;20444;-54
2022/03/13 04:18:38;0.00;0.00;0.62;0.00;0.00;0.62;8.67;5.90;;;23.10;15.50;;;;;;2227111;62;20375;-56
2022/03/13 04:21:25;0.00;0.00;0.62;0.00;0.00;0.62;9.60;6.17;;;23.00;15.40;;;;;;2227678;62;20392;-61
2022/03/13 04:24:11;0.00;0.00;0.62;0.00;0.00;0.62;7.80;5.80;;;23.00;15.50;;;;;;2227629;62;20400;-53
2022/03/13 04:26:56;0.00;0.00;0.62;0.00;0.00;0.62;7.90;5.60;;;22.90;15.40;;;;;;2227316;62;20368;-57
2022/03/13 04:29:41;0.00;0.00;0.62;0.00;0.00;0.62;6.67;5.97;;;22.90;15.50;;;;;;2227482;62;20444;-55
2022/03/13 04:32:26;0.00;0.00;0.62;0.00;0.00;0.62;6.50;5.77;;;22.90;15.50;;;;;;2227583;62;20424;-55
2022/03/13 04:35:11;0.00;0.00;0.62;0.00;0.00;0.62;7.90;6.23;;;22.80;15.50;;;;;;2227314;62;20379;-58
2022/03/13 04:37:57;0.00;0.00;0.62;0.00;0.00;0.62;6.57;5.20;;;22.80;15.50;;;;;;2227977;62;20443;-54
2022/03/13 04:40:41;0.00;0.00;0.62;0.00;0.00;0.62;7.30;6.20;;;22.70;15.40;;;;;;2227651;62;20912;-55
2022/03/13 04:43:26;0.00;0.00;0.62;0.00;0.00;0.62;7.53;5.80;;;22.70;15.40;;;;;;2364799;46;20417;-59
2022/03/13 04:46:11;0.00;0.00;0.62;0.00;0.00;0.62;6.90;5.60;;;22.60;15.40;;;;;;2228141;62;20782;-58
2022/03/13 04:48:57;0.00;0.00;0.62;0.00;0.00;0.62;6.77;6.13;;;22.60;15.50;;;;;;2227842;62;20459;-59
2022/03/13 04:51:41;0.00;0.00;0.62;0.00;0.00;0.62;6.10;5.50;;;22.60;15.50;;;;;;2228237;62;20459;-56
2022/03/13 04:54:27;0.00;0.00;0.62;0.00;0.00;0.62;7.23;5.50;;;22.50;15.50;;;;;;2228355;62;20372;-60
2022/03/13 04:57:13;0.00;0.00;0.62;0.00;0.00;0.62;7.53;6.63;;;22.50;15.50;;;;;;2228071;62;20407;-56
2022/03/13 04:59:58;0.00;0.00;0.62;0.00;0.00;0.62;7.00;5.50;;;22.50;15.50;;;;;;2228487;62;20883;-58
2022/03/13 05:02:43;0.00;0.00;0.62;0.00;0.00;0.62;6.93;5.50;;;22.40;15.40;;;;;;2227984;62;20396;-56
2022/03/13 05:05:27;0.00;0.00;0.62;0.00;0.00;0.62;6.50;5.33;;;22.40;15.40;;;;;;2228455;62;20399;-57
2022/03/13 05:08:15;0.00;0.00;0.62;0.00;0.00;0.62;7.60;5.90;;;22.30;15.40;;;;;;2228240;62;20367;-58
2022/03/13 05:11:07;0.00;0.00;0.62;0.00;0.00;0.62;6.07;5.47;;;22.30;15.40;;;;;;2228024;62;20392;-57
2022/03/13 05:13:52;0.00;0.00;0.62;0.00;0.00;0.62;7.23;5.90;;;22.30;15.40;;;;;;2228474;62;20642;-61
2022/03/13 05:16:36;0.00;0.00;0.62;0.00;0.00;0.62;6.93;6.23;;;22.20;15.30;;;;;;2228209;62;21024;-59
2022/03/13 05:19:21;0.00;0.00;0.62;0.00;0.00;0.62;6.60;5.97;;;22.20;15.30;;;;;;2227680;62;20396;-59
2022/03/13 05:22:09;0.00;0.00;0.62;0.00;0.00;0.62;6.73;5.80;;;22.20;15.40;;;;;;2228135;62;20372;-57
2022/03/13 05:24:54;0.00;0.00;0.62;0.00;0.00;0.62;6.80;6.10;;;22.10;15.90;;;;;;2227648;62;20443;-59
2022/03/13 05:27:41;0.00;0.00;0.62;0.00;0.00;0.62;6.37;5.50;;;22.10;15.30;;;;;;2228260;62;20427;-61
2022/03/13 05:30:27;0.00;0.00;0.62;0.00;0.00;0.62;7.13;6.03;;;22.10;15.30;;;;;;2227647;62;20432;-59
2022/03/13 05:33:11;0.00;0.00;0.62;0.00;0.00;0.62;6.83;6.13;;;22.00;15.30;;;;;;2227851;62;20436;-58
2022/03/13 05:35:56;0.00;0.00;0.62;0.00;0.00;0.62;6.50;5.43;;;22.00;15.30;;;;;;2228165;62;21005;-59
2022/03/13 05:38:40;0.00;0.00;0.62;0.00;0.00;0.62;9.73;5.70;;;22.00;15.30;;;;;;2228033;62;20423;-60
2022/03/13 05:41:27;0.00;0.00;0.62;0.00;0.00;0.62;6.47;5.47;;;22.00;15.30;;;;;;2227909;62;20372;-59
2022/03/13 05:44:14;0.00;0.00;0.62;0.00;0.00;0.62;7.37;5.67;;;21.90;15.30;;;;;;2228318;62;20397;-58
2022/03/13 05:46:58;0.00;0.00;0.62;0.00;0.00;0.62;6.73;6.03;;;21.90;15.30;;;;;;2227561;62;20509;-59
2022/03/13 05:49:44;0.00;0.00;0.62;0.00;0.00;0.62;6.63;5.93;;;21.90;15.30;;;;;;2227907;62;20421;-59
2022/03/13 05:52:28;0.00;0.00;0.62;0.00;0.00;0.62;6.80;5.63;;;21.80;15.30;;;;;;2227875;62;20387;-57
2022/03/13 05:55:14;0.00;0.00;0.62;0.00;0.00;0.62;7.83;5.57;;;21.80;15.30;;;;;;2227762;62;20420;-52
2022/03/13 05:58:01;0.00;0.00;0.62;0.00;0.00;0.62;7.07;6.37;;;21.80;15.30;;;;;;2228019;62;20464;-55
2022/03/13 06:00:54;0.00;0.00;0.62;0.00;0.00;0.62;7.70;6.90;;;21.70;15.30;;;;;;2227860;62;20794;-51
2022/03/13 06:03:39;0.00;0.00;0.62;0.00;0.00;0.62;7.33;5.80;;;21.70;15.30;;;;;;2227635;62;20901;-51
2022/03/13 06:06:23;0.00;0.00;0.62;0.00;0.00;0.62;6.63;5.93;;;21.70;15.30;;;;;;2228242;62;20415;-53
2022/03/13 06:09:07;0.00;0.00;0.62;0.00;0.00;0.62;6.80;6.00;;;21.70;15.30;;;;;;2227621;62;20372;-57
2022/03/13 06:11:52;0.00;0.00;0.62;0.00;0.00;0.62;6.50;5.57;;;21.60;15.30;;;;;;2228084;62;20372;-54
2022/03/13 06:14:37;0.00;0.00;0.62;0.00;0.00;0.62;6.63;5.70;;;21.60;15.30;;;;;;2227904;62;20916;-53
2022/03/13 06:17:23;0.00;0.00;0.62;0.00;0.00;0.62;7.43;6.20;;;21.60;15.30;;;;;;2227590;62;20396;-57
2022/03/13 06:20:10;0.00;0.00;0.62;0.00;0.00;0.62;8.47;6.70;;;21.50;15.20;;;;;;2227804;62;20939;-56
2022/03/13 06:22:55;0.00;0.00;0.62;0.00;0.00;0.62;8.03;6.17;;;21.50;15.20;;;;;;2228026;62;20407;-58
2022/03/13 06:25:39;0.00;0.00;0.62;0.00;0.00;0.62;9.40;6.23;;;21.50;15.30;;;;;;2227640;62;20420;-59
2022/03/13 06:28:24;0.00;0.00;0.62;0.00;0.00;0.62;6.97;5.93;;;21.50;15.30;;;;;;2228027;62;20937;-60
2022/03/13 06:31:09;0.00;0.00;0.62;0.00;0.00;0.62;6.80;6.10;;;21.40;15.20;;;;;;2227716;62;20451;-54
2022/03/13 06:33:55;0.00;0.00;0.62;0.00;0.00;0.62;8.40;6.27;;;21.40;15.20;;;;;;2228641;62;20794;-51
2022/03/13 06:36:40;0.00;0.00;0.62;0.00;0.00;0.62;8.17;6.30;;;21.40;15.20;;;;;;2228700;62;20529;-52
2022/03/13 06:39:25;0.00;0.00;0.62;0.00;0.00;0.62;5.97;5.47;;;21.40;15.20;;;;;;2227513;62;20427;-53
2022/03/13 06:42:09;0.00;0.00;0.62;0.00;0.00;0.62;7.90;6.30;;;21.30;15.10;;;;;;2227437;62;20380;-54
2022/03/13 06:44:54;0.00;0.00;0.62;0.00;0.00;0.62;8.50;6.30;;;21.30;15.10;;;;;;2227991;62;20401;-55
2022/03/13 06:47:39;0.00;0.00;0.62;0.00;0.00;0.62;6.80;6.20;;;21.20;15.10;;;;;;2227704;62;20420;-60
2022/03/13 06:50:25;0.00;0.00;0.62;0.00;0.00;0.62;7.00;5.80;;;21.20;15.10;;;;;;2227992;62;20387;-60
2022/03/13 06:53:10;0.00;0.00;0.62;0.00;0.00;0.62;7.53;5.60;;;21.20;15.20;;;;;;2227705;62;20383;-59
2022/03/13 06:55:55;0.00;0.00;0.62;0.00;0.00;0.62;7.37;5.67;;;21.20;15.30;;;;;;2227668;62;20821;-59
2022/03/13 06:58:41;0.00;0.00;0.62;0.00;0.00;0.62;6.70;6.00;;;21.20;15.30;;;;;;2230188;62;20478;-59
2022/03/13 07:01:26;0.00;0.00;0.62;0.00;0.00;0.62;6.93;5.47;;;21.20;15.30;;;;;;2227322;62;20878;-59
2022/03/13 07:04:12;0.00;0.00;0.62;0.00;0.00;0.62;7.53;6.17;;;21.20;15.30;;;;;;2227820;62;20460;-58
2022/03/13 07:06:59;0.00;0.00;0.62;0.00;0.00;0.62;6.90;5.97;;;21.10;15.20;;;;;;2227983;62;20412;-61
2022/03/13 07:09:43;0.00;0.00;0.62;0.00;0.00;0.62;8.10;5.67;;;21.10;15.20;;;;;;2227417;62;20396;-61
2022/03/13 07:12:28;0.00;0.00;0.62;0.00;0.00;0.62;6.63;5.70;;;21.10;15.20;;;;;;2230240;62;20376;-61
2022/03/13 07:15:14;0.00;0.00;0.62;0.00;0.00;0.62;6.70;5.50;;;21.10;15.20;;;;;;2230048;62;20480;-61
2022/03/13 07:17:59;0.00;0.00;0.62;0.00;0.00;0.62;8.90;6.40;;;21.00;15.10;;;;;;2227066;62;20408;-59
2022/03/13 07:20:43;0.00;0.00;0.62;0.00;0.00;0.62;6.93;6.27;;;21.00;15.10;;;;;;2227424;62;20425;-57
2022/03/13 07:23:29;0.00;0.00;0.62;0.00;0.00;0.62;7.57;6.47;;;21.00;15.20;;;;;;2227438;62;20447;-58
2022/03/13 07:26:14;0.00;0.00;0.62;0.00;0.00;0.62;6.63;5.80;;;21.00;15.20;;;;;;2227942;62;20372;-58
2022/03/13 07:29:01;0.00;0.00;0.62;0.00;0.00;0.62;6.70;5.67;;;21.00;15.20;;;;;;2229924;62;20381;-56
2022/03/13 07:31:46;0.00;0.00;0.62;0.00;0.00;0.62;8.47;5.97;;;20.90;15.20;;;;;;2227655;62;20424;-53
2022/03/13 07:34:30;0.00;0.00;0.62;0.00;0.00;0.62;8.17;6.47;;;20.90;15.30;;;;;;2228174;62;20367;-54
2022/03/13 07:37:15;0.00;0.00;0.62;0.00;0.00;0.62;7.90;6.07;;;20.90;15.30;;;;;;2227913;62;20396;-58
2022/03/13 07:40:01;0.00;0.00;0.62;0.00;0.00;0.62;5.60;5.00;;;20.90;15.30;;;;;;2226761;62;20584;-62
2022/03/13 07:42:46;0.00;0.00;0.62;0.00;0.00;0.62;6.90;5.70;;;20.90;15.40;;;;;;2225683;62;20437;-58
2022/03/13 07:45:31;0.00;0.00;0.62;0.00;0.00;0.62;5.97;5.33;;;20.90;15.40;;;;;;2226684;62;20416;-58
2022/03/13 07:48:15;0.00;0.00;0.62;0.00;0.00;0.62;5.73;5.17;;;20.90;15.40;;;;;;2227567;62;20395;-63
2022/03/13 07:51:00;0.00;0.00;0.62;0.00;0.00;0.62;7.00;5.60;;;20.80;15.40;;;;;;2227804;62;20421;-61
2022/03/13 07:53:47;0.00;0.00;0.62;0.00;0.00;0.62;6.13;5.53;;;20.80;15.50;;;;;;2227768;62;20396;-58
2022/03/13 07:56:32;0.00;0.00;0.62;0.00;0.00;0.62;5.63;5.07;;;20.90;15.60;;;;;;2227576;62;20429;-56
2022/03/13 07:59:17;0.00;0.00;0.62;0.00;0.00;0.62;5.80;5.13;;;20.80;15.50;;;;;;2227557;62;20372;-57
2022/03/13 08:02:02;0.00;0.00;0.62;0.00;0.00;0.62;7.17;5.93;;;20.80;15.50;;;;;;2227610;62;20843;-60
2022/03/13 08:04:47;0.00;0.00;0.62;0.00;0.00;0.62;5.77;4.87;;;20.80;15.50;;;;;;2227881;62;20372;-59
2022/03/13 08:07:31;0.00;0.00;0.62;0.00;0.00;0.62;5.20;4.70;;;20.80;15.50;;;;;;2227302;62;20404;-59
2022/03/13 08:10:21;0.00;0.00;0.62;0.00;0.00;0.62;9.70;5.50;;;20.80;15.60;;;;;;2227630;62;20403;-58
2022/03/13 08:13:06;0.00;0.00;0.62;0.00;0.00;0.62;7.10;6.20;;;20.80;15.60;;;;;;2227840;62;20368;-59
2022/03/13 08:15:51;0.00;0.00;0.62;0.00;0.00;0.62;6.37;5.63;;;20.80;15.60;;;;;;2227405;62;20388;-61
2022/03/13 08:18:38;0.00;0.00;0.62;0.00;0.00;0.62;6.00;5.40;;;20.80;15.60;;;;;;2227764;62;20957;-59
2022/03/13 08:21:23;0.00;0.00;0.62;0.00;0.00;0.62;5.90;5.13;;;20.80;15.60;;;;;;2227415;62;20387;-63
2022/03/13 08:24:08;0.00;0.00;0.62;0.00;0.00;0.62;6.03;5.40;;;20.80;16.20;;;;;;2227531;62;20353;-57
2022/03/13 08:26:52;0.00;0.00;0.62;0.00;0.00;0.62;5.23;4.73;;;20.80;15.60;;;;;;2227699;62;20413;-58
2022/03/13 08:29:40;0.00;0.00;0.62;0.00;0.00;0.62;6.77;5.60;;;20.80;15.60;;;;;;2227506;62;20469;-51
2022/03/13 08:32:24;0.00;0.00;0.62;0.00;0.00;0.62;5.67;5.07;;;20.80;15.60;;;;;;2227633;62;20389;-51
2022/03/13 08:35:10;0.00;0.00;0.62;0.00;0.00;0.62;8.03;5.93;;;20.80;15.50;;;;;;2227674;62;20376;-51
2022/03/13 08:37:55;0.00;0.00;0.62;0.00;0.00;0.62;6.57;5.87;;;20.90;15.50;;;;;;2227162;62;20760;-52
2022/03/13 08:40:40;0.00;0.00;0.62;0.00;0.00;0.62;8.03;5.97;;;20.90;15.40;;;;;;2227476;62;20440;-53
2022/03/13 08:43:24;0.00;0.00;0.62;0.00;0.00;0.62;9.30;7.10;;;20.90;15.40;;;;;;2227630;62;20771;-51
2022/03/13 08:46:14;0.00;0.00;0.62;0.00;0.00;0.62;7.33;6.20;;;20.90;15.40;;;;;;2227370;62;20403;-52
2022/03/13 08:48:58;0.00;0.00;0.62;0.00;0.00;0.62;9.00;6.50;;;20.90;15.40;;;;;;2227446;62;20400;-53
2022/03/13 08:51:43;0.00;0.00;0.62;0.00;0.00;0.62;7.30;5.80;;;20.90;15.40;;;;;;2227481;62;20678;-51
2022/03/13 08:54:28;0.00;0.00;0.62;0.00;0.00;0.62;9.90;6.13;;;20.90;15.50;;;;;;2227544;62;20420;-50
2022/03/13 08:57:12;0.00;0.00;0.62;0.00;0.00;0.62;7.33;5.20;;;20.90;15.60;;;;;;2227604;62;20937;-49
2022/03/13 08:59:57;0.00;0.00;0.62;0.00;0.00;0.62;6.50;4.60;;;21.00;15.70;;;;;;2229256;62;20387;-49
2022/03/13 09:02:43;0.00;0.00;0.62;0.00;0.00;0.62;6.00;5.03;;;21.00;15.80;;;;;;2227677;62;20428;-49
2022/03/13 09:05:30;0.00;0.00;0.62;0.00;0.00;0.62;5.43;4.57;;;21.00;15.90;;;;;;2273069;59;20408;-53
2022/03/13 09:08:16;0.00;0.00;0.62;0.00;0.00;0.62;6.70;4.60;;;21.00;15.90;;;;;;2452717;54;20377;-50
2022/03/13 09:11:01;0.00;0.00;0.62;0.00;0.00;0.62;5.33;4.83;;;21.00;15.90;;;;;;2223876;62;20480;-49
2022/03/13 09:13:46;0.00;0.00;0.62;0.00;0.00;0.62;5.20;4.33;;;21.00;15.90;;;;;;2223871;62;20389;-48
2022/03/13 09:16:32;0.00;0.00;0.62;0.00;0.00;0.62;5.57;4.47;;;21.00;16.00;;;;;;2223533;62;20492;-50
2022/03/13 09:19:20;0.00;0.00;0.62;0.00;0.00;0.62;7.37;4.93;;;21.00;16.00;;;;;;2224194;62;20834;-52
2022/03/13 09:22:05;0.00;0.00;0.62;0.00;0.00;0.62;4.77;4.10;;;21.10;16.10;;;;;;2223861;62;20454;-47
2022/03/13 09:24:50;0.00;0.00;0.62;0.00;0.00;0.62;5.73;4.60;;;21.10;16.10;;;;;;2224421;62;20426;-46
2022/03/13 09:27:35;0.00;0.00;0.62;0.00;0.00;0.62;4.37;3.77;;;21.10;16.20;;;;;;2224549;62;20361;-46
2022/03/13 09:30:19;0.00;0.00;0.62;0.00;0.00;0.62;5.40;3.93;;;21.20;16.30;;;;;;2224174;62;20441;-47
2022/03/13 09:33:04;0.00;0.00;0.62;0.00;0.00;0.62;5.80;4.47;;;21.20;16.30;;;;;;2224431;62;20406;-52
2022/03/13 09:35:51;0.00;0.00;0.62;0.00;0.00;0.62;6.70;4.30;;;21.20;16.30;;;;;;2224405;62;20373;-49
2022/03/13 09:38:36;0.00;0.00;0.62;0.00;0.00;0.62;6.43;4.87;;;21.20;16.30;;;;;;2226389;62;20346;-49
2022/03/13 09:41:21;0.00;0.00;0.62;0.00;0.00;0.62;5.73;5.10;;;21.20;16.40;;;;;;2224354;62;20449;-50
2022/03/13 09:44:08;0.00;0.00;0.62;0.00;0.00;0.62;5.87;5.23;;;21.30;16.50;;;;;;2223687;62;20385;-51
2022/03/13 09:46:53;0.00;0.00;0.62;0.00;0.00;0.62;4.67;4.27;;;21.30;16.50;;;;;;2224210;62;20893;-53
2022/03/13 09:49:40;0.00;0.00;0.62;0.00;0.00;0.62;4.47;4.07;;;21.30;16.50;;;;;;2223720;62;20490;-53
2022/03/13 09:52:26;0.00;0.00;0.62;0.00;0.00;0.62;4.60;4.03;;;21.30;16.60;;;;;;2223073;62;20416;-49
2022/03/13 09:55:13;0.00;0.00;0.62;0.00;0.00;0.62;5.50;4.43;;;21.40;16.70;;;;;;2223916;62;20791;-48
2022/03/13 09:57:58;0.00;0.00;0.62;0.00;0.00;0.62;5.93;3.50;;;21.40;16.70;;;;;;2223036;62;20392;-55
2022/03/13 10:00:42;0.00;0.00;0.62;0.00;0.00;0.62;5.30;4.80;;;21.40;16.70;;;;;;2223428;62;20735;-50
2022/03/13 10:03:27;0.00;0.00;0.62;0.00;0.00;0.62;4.10;3.50;;;21.40;16.70;;;;;;2224542;62;20394;-50
2022/03/13 10:06:13;0.00;0.00;0.62;0.00;0.00;0.62;4.90;3.73;;;21.50;16.80;;;;;;2224147;62;20369;-52
2022/03/13 10:08:59;0.00;0.00;0.62;0.00;0.00;0.62;4.13;3.53;;;21.50;16.90;;;;;;2224478;62;20417;-53
2022/03/13 10:11:44;0.00;0.00;0.62;0.00;0.00;0.62;4.77;3.73;;;21.50;16.90;;;;;;2224272;62;20466;-48
2022/03/13 10:14:28;0.00;0.00;0.62;0.00;0.00;0.62;5.90;4.27;;;21.60;16.90;;;;;;2223979;62;20922;-53
2022/03/13 10:17:26;0.00;0.00;0.62;0.00;0.00;0.62;5.33;4.30;;;21.60;16.90;;;;;;2224275;62;20917;-49
2022/03/13 10:20:14;0.00;0.00;0.62;0.00;0.00;0.62;3.90;3.10;;;21.70;17.00;;;;;;2224044;62;20838;-48
2022/03/13 10:23:10;0.00;0.00;0.62;0.00;0.00;0.62;4.03;3.50;;;21.70;17.00;;;;;;2226251;62;20389;-51
2022/03/13 10:25:56;0.00;0.00;0.62;0.00;0.00;0.62;4.20;3.30;;;21.70;17.10;;;;;;2224387;62;20928;-49
2022/03/13 10:28:40;0.00;0.00;0.62;0.00;0.00;0.62;4.90;3.80;;;21.70;17.00;;;;;;2223795;62;20432;-48
2022/03/13 10:31:27;0.00;0.00;0.62;0.00;0.00;0.62;4.53;3.60;;;21.80;17.10;;;;;;2224337;62;20388;-48
2022/03/13 10:34:12;0.00;0.00;0.62;0.00;0.00;0.62;6.83;3.17;;;21.80;17.10;;;;;;2224293;62;20389;-48
2022/03/13 10:36:57;0.00;0.00;0.62;0.00;0.00;0.62;3.57;3.23;;;21.90;17.20;;;;;;2223872;62;20942;-48
2022/03/13 10:39:42;0.00;0.00;0.62;0.00;0.00;0.62;4.43;3.00;;;21.90;17.20;;;;;;2223995;62;20384;-48
2022/03/13 10:42:30;0.00;0.00;0.62;0.00;0.00;0.62;3.97;3.57;;;22.00;17.30;;;;;;2224654;62;20492;-50
2022/03/13 10:45:36;0.00;0.00;0.62;0.00;0.00;0.62;3.70;3.20;;;22.00;17.30;;;;;;2231779;62;20500;-53
2022/03/13 10:48:26;0.00;0.00;0.62;0.00;0.00;0.62;3.80;3.13;;;22.00;17.30;;;;;;2232157;62;20834;-52
2022/03/13 10:51:13;0.00;0.00;0.62;0.00;0.00;0.62;4.10;3.30;;;22.10;17.90;;;;;;2231622;62;20448;-48
2022/03/13 10:53:58;0.00;0.00;0.62;0.00;0.00;0.62;3.60;3.00;;;22.10;17.40;;;;;;2231957;62;20826;-50